»·PEaware :: SKW3394 KPDX-KRNO

SKW3394 :: KPDX-KRNO

FLIGHT INFORMATION

Flight Status: Arrived
Operator:
SkyWest Airlines
More flights by this operator :: More flights under this callsign
Pilot: Aundrey S. (17120)
Aircraft: CANADAIR CL-600 CRJ-200
(CRJ2)
More flights by this aircraft type
Origin: KPDX Portland Intl
United States
Destination: KRNO Reno/Tahoe Intl
United States
More flights between these airports :: More routes between these airports
Route: CASCD2 PAWLI BAARB J5 HARTT HARTT1
File this flight plan on PilotEdge
Remarks:
Altitude:
(Current/Filed)
37,000ft
Speed:
(Current/Filed)
420kts
Departed: 08-Sep-19 12:36 PM
Arrived: 08-Sep-19 01:36 PM
Distance/Time
Traveled:
386nm/1:00
Distance/Time
To Go:
Arrived

Flight Plot

Page will automatically refresh every two minutes.

Flight plan parsing failed; only flown route is shown


Map Options




Map Legend


Flown Route
Filed Route
Departure Airport
Arrival Airport
Navaid (VOR, NDB)
Fix

Horizontal Profiles

Position Reports

Time Latitude Longitude Heading Altitude Ground
Speed
08-Sep-19 12:08 45.587484 -122.593829 22 22ft 0kts
08-Sep-19 12:09 45.587484 -122.593829 22 22ft 0kts
08-Sep-19 12:10 45.587484 -122.593829 22 22ft 0kts
08-Sep-19 12:11 45.587484 -122.593829 22 22ft 0kts
08-Sep-19 12:12 45.587484 -122.593829 22 22ft 0kts
08-Sep-19 12:13 45.587484 -122.593829 22 22ft 0kts
08-Sep-19 12:14 45.587484 -122.593829 22 22ft 0kts
08-Sep-19 12:15 45.587484 -122.593829 22 22ft 0kts
08-Sep-19 12:16 45.587484 -122.593829 22 22ft 0kts
08-Sep-19 12:17 45.587484 -122.593829 22 22ft 0kts
08-Sep-19 12:18 45.587484 -122.593829 22 22ft 0kts
08-Sep-19 12:19 45.587484 -122.593829 22 22ft 0kts
08-Sep-19 12:20 45.587484 -122.593829 22 22ft 0kts
08-Sep-19 12:21 45.587484 -122.593829 22 22ft 0kts
08-Sep-19 12:22 45.587484 -122.593829 22 22ft 0kts
08-Sep-19 12:23 45.587484 -122.593829 22 22ft 0kts
08-Sep-19 12:24 45.587484 -122.593829 22 22ft 0kts
08-Sep-19 12:25 45.587484 -122.593829 22 22ft 0kts
08-Sep-19 12:26 45.587484 -122.593829 22 22ft 0kts
08-Sep-19 12:26 45.587459 -122.593843 22 22ft 2kts
08-Sep-19 12:28 45.587099 -122.594546 109 22ft 2kts
08-Sep-19 12:29 45.587201 -122.594766 136 21ft 0kts
08-Sep-19 12:29 45.587201 -122.594766 136 21ft 0kts
08-Sep-19 12:30 45.587201 -122.594766 136 21ft 0kts
08-Sep-19 12:32 45.587201 -122.594766 136 21ft 0kts
08-Sep-19 12:33 45.584660 -122.590916 128 21ft 20kts
08-Sep-19 12:33 45.582138 -122.584864 118 18ft 20kts
08-Sep-19 12:34 45.581512 -122.583652 163 18ft 0kts
08-Sep-19 12:35 45.582643 -122.589370 297 20ft 82kts
08-Sep-19 12:36 45.607178 -122.650729 298 415ft 268kts
08-Sep-19 12:37 45.641798 -122.736642 300 5662ft 257kts
08-Sep-19 12:38 45.667128 -122.831815 257 9979ft 276kts
08-Sep-19 12:39 45.625698 -122.923456 197 13282ft 334kts
08-Sep-19 12:40 45.535300 -122.885760 143 17468ft 366kts
08-Sep-19 12:41 45.464640 -122.773100 134 21010ft 394kts
08-Sep-19 12:42 45.388307 -122.654173 134 24176ft 420kts
08-Sep-19 12:43 45.307453 -122.528941 134 27211ft 440kts
08-Sep-19 12:44 45.222419 -122.397841 134 29961ft 459kts
08-Sep-19 12:45 45.133728 -122.261719 136 32527ft 476kts
08-Sep-19 12:46 45.036222 -122.132803 160 34744ft 479kts
08-Sep-19 12:47 44.913288 -122.052587 158 36592ft 490kts
08-Sep-19 12:48 44.787909 -121.968944 158 37241ft 499kts
08-Sep-19 12:49 44.662465 -121.885647 158 37313ft 499kts
08-Sep-19 12:50 44.536674 -121.802532 158 37368ft 500kts
08-Sep-19 12:51 44.410384 -121.719476 158 37365ft 501kts
08-Sep-19 12:52 44.283755 -121.636604 158 37402ft 502kts
08-Sep-19 12:53 44.157088 -121.554098 158 37430ft 502kts
08-Sep-19 12:54 44.030617 -121.472110 158 37449ft 502kts
08-Sep-19 12:55 43.903411 -121.390034 158 37424ft 503kts
08-Sep-19 12:56 43.775710 -121.308036 159 37436ft 504kts
08-Sep-19 12:57 43.648208 -121.226549 159 37425ft 504kts
08-Sep-19 12:58 43.520487 -121.145300 159 37431ft 505kts
08-Sep-19 12:59 43.392169 -121.064058 159 37447ft 505kts
08-Sep-19 13:00 43.264207 -120.983418 159 37442ft 506kts
08-Sep-19 13:01 43.134223 -120.911674 167 37432ft 501kts
08-Sep-19 13:02 43.000354 -120.855742 167 37488ft 501kts
08-Sep-19 13:03 42.866654 -120.800357 167 37526ft 501kts
08-Sep-19 13:04 42.732832 -120.745173 167 37548ft 502kts
08-Sep-19 13:05 42.599104 -120.690276 167 37550ft 502kts
08-Sep-19 13:06 42.465153 -120.635534 167 37567ft 503kts
08-Sep-19 13:07 42.330899 -120.580906 168 37574ft 503kts
08-Sep-19 13:08 42.196690 -120.526554 167 37571ft 504kts
08-Sep-19 13:09 42.062121 -120.472289 167 37586ft 504kts
08-Sep-19 13:10 41.927333 -120.418166 168 37584ft 504kts
08-Sep-19 13:11 41.792542 -120.364300 168 37597ft 504kts
08-Sep-19 13:12 41.657483 -120.310565 168 37567ft 505kts
08-Sep-19 13:13 41.522549 -120.257090 169 37582ft 503kts
08-Sep-19 13:14 41.391332 -120.205319 169 36245ft 477kts
08-Sep-19 13:15 41.264421 -120.155485 169 33968ft 473kts
08-Sep-19 13:16 41.138392 -120.108313 173 31458ft 466kts
08-Sep-19 13:17 41.012207 -120.071788 173 28962ft 463kts
08-Sep-19 13:18 40.888151 -120.036218 173 26493ft 460kts
08-Sep-19 13:19 40.764015 -119.998002 171 23979ft 457kts
08-Sep-19 13:20 40.641574 -119.958511 170 21475ft 450kts
08-Sep-19 13:21 40.522023 -119.920003 170 19107ft 435kts
08-Sep-19 13:22 40.407275 -119.883326 170 16985ft 413kts
08-Sep-19 13:23 40.300084 -119.849106 169 15280ft 384kts
08-Sep-19 13:24 40.200919 -119.817551 169 13564ft 352kts
08-Sep-19 13:25 40.110802 -119.788913 169 13036ft 305kts
08-Sep-19 13:26 40.031873 -119.768606 183 12935ft 278kts
08-Sep-19 13:27 39.953105 -119.768110 183 12363ft 286kts
08-Sep-19 13:28 39.872676 -119.768216 183 11832ft 285kts
08-Sep-19 13:29 39.792161 -119.768514 181 10269ft 294kts
08-Sep-19 13:30 39.714144 -119.768622 181 8614ft 247kts
08-Sep-19 13:31 39.656418 -119.768734 186 7479ft 190kts
08-Sep-19 13:32 39.605552 -119.768768 179 6391ft 167kts
08-Sep-19 13:33 39.562247 -119.768633 184 5571ft 148kts
08-Sep-19 13:34 39.521154 -119.769155 186 4625ft 144kts
08-Sep-19 13:35 39.492966 -119.769846 216 4405ft 6kts
08-Sep-19 13:36 39.492871 -119.769942 219 4406ft 3kts
08-Sep-19 13:37 39.493728 -119.771541 359 4408ft 13kts
08-Sep-19 13:38 39.498403 -119.771526 0 4408ft 20kts
08-Sep-19 13:39 39.504843 -119.771503 0 4408ft 18kts
08-Sep-19 13:40 39.508015 -119.772448 269 4411ft 9kts
08-Sep-19 13:41 39.507471 -119.773934 188 4413ft 4kts

Navigation Log

Ident Type
Flight plan parsing failed, navigation log unavailable